sensor_id;sensor_type;location;lat;lon;timestamp;pressure;altitude;pressure_sealevel;temperature;humidity
39223;BME280;24936;46.328;11.026;2023-07-13T14:25:25;94451.03;;;16.78;100.00
39223;BME280;24936;46.328;11.026;2023-07-13T14:27:58;94456.16;;;16.79;100.00
39223;BME280;24936;46.328;11.026;2023-07-13T14:30:33;94451.50;;;16.81;100.00
39223;BME280;24936;46.328;11.026;2023-07-13T14:32:58;94462.13;;;16.81;100.00
39223;BME280;24936;46.328;11.026;2023-07-13T14:35:23;94469.75;;;16.85;100.00
39223;BME280;24936;46.328;11.026;2023-07-13T14:37:49;94469.94;;;16.83;100.00
39223;BME280;24936;46.328;11.026;2023-07-13T14:40:16;94480.38;;;16.85;100.00
39223;BME280;24936;46.328;11.026;2023-07-13T14:42:42;94463.44;;;17.09;100.00
39223;BME280;24936;46.328;11.026;2023-07-13T14:45:15;94468.50;;;17.19;100.00
39223;BME280;24936;46.328;11.026;2023-07-13T14:47:41;94469.94;;;17.06;100.00
39223;BME280;24936;46.328;11.026;2023-07-13T14:50:32;94455.91;;;16.98;100.00
39223;BME280;24936;46.328;11.026;2023-07-13T14:53:00;94465.03;;;17.33;100.00
39223;BME280;24936;46.328;11.026;2023-07-13T14:55:25;94461.28;;;17.42;100.00
39223;BME280;24936;46.328;11.026;2023-07-13T14:57:51;94456.50;;;17.38;100.00
39223;BME280;24936;46.328;11.026;2023-07-13T15:00:18;94448.06;;;17.49;100.00
39223;BME280;24936;46.328;11.026;2023-07-13T15:02:47;94422.94;;;17.67;100.00
39223;BME280;24936;46.328;11.026;2023-07-13T15:05:19;94423.03;;;18.03;100.00
39223;BME280;24936;46.328;11.026;2023-07-13T15:07:45;94430.13;;;18.76;100.00
39223;BME280;24936;46.328;11.026;2023-07-13T15:10:26;94427.25;;;19.56;100.00
39223;BME280;24936;46.328;11.026;2023-07-13T15:12:58;94419.88;;;19.94;99.60
39223;BME280;24936;46.328;11.026;2023-07-13T15:15:23;94418.53;;;20.25;100.00
39223;BME280;24936;46.328;11.026;2023-07-13T15:17:49;94413.88;;;20.47;99.20
39223;BME280;24936;46.328;11.026;2023-07-13T15:20:31;94411.97;;;20.34;98.37
39223;BME280;24936;46.328;11.026;2023-07-13T15:22:58;94419.97;;;20.27;99.14
39223;BME280;24936;46.328;11.026;2023-07-13T15:25:26;94419.38;;;20.32;96.71
39223;BME280;24936;46.328;11.026;2023-07-13T15:27:53;94418.63;;;20.58;96.31
39223;BME280;24936;46.328;11.026;2023-07-13T15:30:19;94421.09;;;20.73;95.46
39223;BME280;24936;46.328;11.026;2023-07-13T15:32:46;94420.47;;;20.71;94.47
39223;BME280;24936;46.328;11.026;2023-07-13T15:35:21;94425.00;;;20.64;97.62
39223;BME280;24936;46.328;11.026;2023-07-13T15:37:48;94422.16;;;20.92;94.21
39223;BME280;24936;46.328;11.026;2023-07-13T15:40:14;94410.44;;;21.14;95.82
39223;BME280;24936;46.328;11.026;2023-07-13T15:42:41;94409.34;;;21.55;94.72
39223;BME280;24936;46.328;11.026;2023-07-13T15:45:23;94406.63;;;21.82;94.81
39223;BME280;24936;46.328;11.026;2023-07-13T15:47:53;94416.44;;;22.08;94.79
39223;BME280;24936;46.328;11.026;2023-07-13T15:50:21;94402.69;;;21.91;91.36
39223;BME280;24936;46.328;11.026;2023-07-13T15:52:51;94405.44;;;21.78;92.05
39223;BME280;24936;46.328;11.026;2023-07-13T15:55:17;94405.03;;;21.54;93.58
39223;BME280;24936;46.328;11.026;2023-07-13T15:57:46;94407.91;;;21.73;93.32
39223;BME280;24936;46.328;11.026;2023-07-13T16:00:17;94413.50;;;21.64;93.32
39223;BME280;24936;46.328;11.026;2023-07-13T16:02:43;94412.03;;;21.48;91.99
39223;BME280;24936;46.328;11.026;2023-07-13T16:05:09;94400.19;;;21.96;92.67
39223;BME280;24936;46.328;11.026;2023-07-13T16:07:34;94399.28;;;21.64;91.16
39223;BME280;24936;46.328;11.026;2023-07-13T16:10:00;94385.66;;;21.79;86.66
39223;BME280;24936;46.328;11.026;2023-07-13T16:12:26;94384.97;;;21.90;89.39
39223;BME280;24936;46.328;11.026;2023-07-13T16:14:52;94373.34;;;22.10;88.70
39223;BME280;24936;46.328;11.026;2023-07-13T16:17:18;94368.78;;;21.65;85.79
39223;BME280;24936;46.328;11.026;2023-07-13T16:19:45;94380.75;;;21.56;83.59
39223;BME280;24936;46.328;11.026;2023-07-13T16:22:18;94381.47;;;21.90;81.74
39223;BME280;24936;46.328;11.026;2023-07-13T16:24:44;94375.28;;;21.96;84.27
39223;BME280;24936;46.328;11.026;2023-07-13T16:27:11;94382.31;;;22.29;84.38
39223;BME280;24936;46.328;11.026;2023-07-13T16:29:38;94376.50;;;22.39;82.93
39223;BME280;24936;46.328;11.026;2023-07-13T16:32:05;94379.72;;;22.09;82.30
39223;BME280;24936;46.328;11.026;2023-07-13T16:34:32;94386.31;;;21.41;81.16
39223;BME280;24936;46.328;11.026;2023-07-13T16:36:58;94391.66;;;21.41;84.90
39223;BME280;24936;46.328;11.026;2023-07-13T16:39:25;94389.13;;;21.86;84.43
39223;BME280;24936;46.328;11.026;2023-07-13T16:41:53;94385.91;;;21.37;81.30
39223;BME280;24936;46.328;11.026;2023-07-13T16:44:20;94390.69;;;20.95;82.08
39223;BME280;24936;46.328;11.026;2023-07-13T16:46:52;94384.94;;;20.91;81.78
39223;BME280;24936;46.328;11.026;2023-07-13T16:49:30;94393.94;;;20.56;81.61
39223;BME280;24936;46.328;11.026;2023-07-13T16:51:58;94395.75;;;20.42;82.14
39223;BME280;24936;46.328;11.026;2023-07-13T16:54:28;94398.88;;;20.66;80.20
39223;BME280;24936;46.328;11.026;2023-07-13T16:56:57;94393.94;;;20.56;80.72
39223;BME280;24936;46.328;11.026;2023-07-13T16:59:28;94389.25;;;21.05;82.82
39223;BME280;24936;46.328;11.026;2023-07-13T17:01:54;94389.03;;;21.20;79.70
39223;BME280;24936;46.328;11.026;2023-07-13T17:04:20;94389.88;;;21.01;79.69
39223;BME280;24936;46.328;11.026;2023-07-13T17:06:50;94387.75;;;20.49;80.09
39223;BME280;24936;46.328;11.026;2023-07-13T17:09:17;94391.19;;;19.74;80.84
39223;BME280;24936;46.328;11.026;2023-07-13T17:11:43;94392.78;;;19.27;83.84
39223;BME280;24936;46.328;11.026;2023-07-13T17:14:14;94394.91;;;18.38;85.73
39223;BME280;24936;46.328;11.026;2023-07-13T17:16:44;94398.88;;;18.05;88.74
39223;BME280;24936;46.328;11.026;2023-07-13T17:19:13;94396.88;;;17.77;89.71
39223;BME280;24936;46.328;11.026;2023-07-13T17:21:40;94388.53;;;17.65;88.62
39223;BME280;24936;46.328;11.026;2023-07-13T17:24:15;94396.53;;;17.50;89.91
39223;BME280;24936;46.328;11.026;2023-07-13T17:26:41;94398.81;;;17.38;93.09
39223;BME280;24936;46.328;11.026;2023-07-13T17:29:07;94392.56;;;17.16;93.97
39223;BME280;24936;46.328;11.026;2023-07-13T17:31:33;94391.81;;;17.07;91.50
39223;BME280;24936;46.328;11.026;2023-07-13T17:33:59;94390.91;;;17.00;94.29
39223;BME280;24936;46.328;11.026;2023-07-13T17:36:25;94387.38;;;16.85;94.81
39223;BME280;24936;46.328;11.026;2023-07-13T17:38:50;94391.22;;;16.82;93.50
39223;BME280;24936;46.328;11.026;2023-07-13T17:41:21;94397.53;;;16.81;94.54
39223;BME280;24936;46.328;11.026;2023-07-13T17:43:47;94392.31;;;16.88;91.19
39223;BME280;24936;46.328;11.026;2023-07-13T17:46:30;94402.09;;;16.95;91.54
39223;BME280;24936;46.328;11.026;2023-07-13T17:48:56;94392.78;;;16.91;90.84
39223;BME280;24936;46.328;11.026;2023-07-13T17:51:23;94398.94;;;16.92;91.06
39223;BME280;24936;46.328;11.026;2023-07-13T17:53:53;94394.16;;;16.87;90.74
39223;BME280;24936;46.328;11.026;2023-07-13T17:56:19;94394.78;;;16.89;91.08
39223;BME280;24936;46.328;11.026;2023-07-13T17:58:45;94387.16;;;16.71;90.74
39223;BME280;24936;46.328;11.026;2023-07-13T18:01:19;94390.34;;;16.66;92.04
39223;BME280;24936;46.328;11.026;2023-07-13T18:03:46;94390.59;;;16.57;92.91
39223;BME280;24936;46.328;11.026;2023-07-13T18:06:17;94382.38;;;16.66;89.84
39223;BME280;24936;46.328;11.026;2023-07-13T18:08:54;94391.56;;;16.64;90.62
39223;BME280;24936;46.328;11.026;2023-07-13T18:11:21;94395.47;;;16.68;89.34
39223;BME280;24936;46.328;11.026;2023-07-13T18:13:47;94399.53;;;16.79;88.11
39223;BME280;24936;46.328;11.026;2023-07-13T18:16:16;94401.63;;;16.69;88.52
39223;BME280;24936;46.328;11.026;2023-07-13T18:18:44;94394.41;;;16.77;86.74
39223;BME280;24936;46.328;11.026;2023-07-13T18:21:09;94404.66;;;16.80;87.15
39223;BME280;24936;46.328;11.026;2023-07-13T18:23:35;94407.94;;;16.67;88.10
39223;BME280;24936;46.328;11.026;2023-07-13T18:26:01;94403.78;;;16.65;88.77
39223;BME280;24936;46.328;11.026;2023-07-13T18:28:27;94410.91;;;16.49;90.03
39223;BME280;24936;46.328;11.026;2023-07-13T18:30:54;94407.78;;;16.46;89.31
39223;BME280;24936;46.328;11.026;2023-07-13T18:33:25;94413.63;;;16.41;90.70
39223;BME280;24936;46.328;11.026;2023-07-13T18:35:52;94424.13;;;16.34;90.29
39223;BME280;24936;46.328;11.026;2023-07-13T18:38:22;94417.69;;;16.29;90.63
39223;BME280;24936;46.328;11.026;2023-07-13T18:40:50;94421.88;;;16.23;93.21
39223;BME280;24936;46.328;11.026;2023-07-13T18:43:16;94427.41;;;16.13;93.82
39223;BME280;24936;46.328;11.026;2023-07-13T18:45:41;94431.13;;;15.96;95.67
39223;BME280;24936;46.328;11.026;2023-07-13T18:48:11;94443.78;;;15.94;95.61
39223;BME280;24936;46.328;11.026;2023-07-13T18:50:39;94452.06;;;15.82;97.29
39223;BME280;24936;46.328;11.026;2023-07-13T18:53:14;94450.25;;;15.91;95.23
39223;BME280;24936;46.328;11.026;2023-07-13T18:55:41;94460.41;;;15.79;98.00
39223;BME280;24936;46.328;11.026;2023-07-13T18:58:07;94464.91;;;15.70;98.04
39223;BME280;24936;46.328;11.026;2023-07-13T19:00:33;94473.47;;;15.89;95.38
39223;BME280;24936;46.328;11.026;2023-07-13T19:02:59;94470.31;;;15.94;95.15
39223;BME280;24936;46.328;11.026;2023-07-13T19:05:33;94477.97;;;15.72;98.91
39223;BME280;24936;46.328;11.026;2023-07-13T19:08:00;94480.00;;;15.53;100.00
39223;BME280;24936;46.328;11.026;2023-07-13T19:10:27;94475.09;;;15.34;100.00
39223;BME280;24936;46.328;11.026;2023-07-13T19:12:58;94479.09;;;15.21;100.00
39223;BME280;24936;46.328;11.026;2023-07-13T19:15:32;94482.44;;;15.07;100.00
39223;BME280;24936;46.328;11.026;2023-07-13T19:18:00;94499.84;;;15.01;100.00
39223;BME280;24936;46.328;11.026;2023-07-13T19:20:27;94497.84;;;14.95;100.00
39223;BME280;24936;46.328;11.026;2023-07-13T19:22:56;94512.22;;;14.84;100.00
39223;BME280;24936;46.328;11.026;2023-07-13T19:25:24;94510.09;;;14.79;100.00
39223;BME280;24936;46.328;11.026;2023-07-13T19:27:53;94515.56;;;14.78;100.00
39223;BME280;24936;46.328;11.026;2023-07-13T19:30:23;94524.16;;;14.80;100.00
39223;BME280;24936;46.328;11.026;2023-07-13T19:32:56;94534.41;;;14.75;100.00
39223;BME280;24936;46.328;11.026;2023-07-13T19:35:26;94533.25;;;14.77;100.00
39223;BME280;24936;46.328;11.026;2023-07-13T19:37:53;94534.09;;;14.86;100.00
39223;BME280;24936;46.328;11.026;2023-07-13T19:40:21;94543.69;;;14.87;100.00
39223;BME280;24936;46.328;11.026;2023-07-13T19:42:48;94542.03;;;14.86;100.00
39223;BME280;24936;46.328;11.026;2023-07-13T19:45:22;94550.97;;;14.85;100.00
39223;BME280;24936;46.328;11.026;2023-07-13T19:47:48;94558.94;;;14.85;100.00
39223;BME280;24936;46.328;11.026;2023-07-13T19:50:17;94568.06;;;14.99;100.00
39223;BME280;24936;46.328;11.026;2023-07-13T19:52:49;94569.38;;;14.87;100.00
39223;BME280;24936;46.328;11.026;2023-07-13T19:55:18;94571.03;;;14.96;100.00
39223;BME280;24936;46.328;11.026;2023-07-13T19:57:45;94580.16;;;15.26;99.67
39223;BME280;24936;46.328;11.026;2023-07-13T20:00:21;94597.72;;;15.19;100.00
39223;BME280;24936;46.328;11.026;2023-07-13T20:02:47;94592.59;;;15.18;100.00
39223;BME280;24936;46.328;11.026;2023-07-13T20:05:21;94593.75;;;15.07;100.00
39223;BME280;24936;46.328;11.026;2023-07-13T20:07:58;94596.41;;;15.07;100.00
39223;BME280;24936;46.328;11.026;2023-07-13T20:10:27;94593.06;;;14.88;100.00
39223;BME280;24936;46.328;11.026;2023-07-13T20:12:59;94606.13;;;14.73;100.00
39223;BME280;24936;46.328;11.026;2023-07-13T20:15:27;94607.19;;;14.54;100.00
39223;BME280;24936;46.328;11.026;2023-07-13T20:17:58;94615.09;;;14.46;100.00
39223;BME280;24936;46.328;11.026;2023-07-13T20:20:32;94607.81;;;14.48;100.00
39223;BME280;24936;46.328;11.026;2023-07-13T20:22:59;94616.69;;;14.30;100.00
39223;BME280;24936;46.328;11.026;2023-07-13T20:25:32;94612.47;;;14.11;100.00
39223;BME280;24936;46.328;11.026;2023-07-13T20:27:59;94617.66;;;14.21;100.00
39223;BME280;24936;46.328;11.026;2023-07-13T20:30:32;94617.47;;;14.22;100.00
39223;BME280;24936;46.328;11.026;2023-07-13T20:33:03;94615.09;;;14.11;100.00
39223;BME280;24936;46.328;11.026;2023-07-13T20:35:31;94619.22;;;14.05;100.00
39223;BME280;24936;46.328;11.026;2023-07-13T20:37:58;94619.59;;;14.11;100.00
39223;BME280;24936;46.328;11.026;2023-07-13T20:40:27;94628.31;;;14.03;100.00
39223;BME280;24936;46.328;11.026;2023-07-13T20:42:53;94637.38;;;14.00;100.00
39223;BME280;24936;46.328;11.026;2023-07-13T20:45:21;94643.97;;;13.96;100.00
39223;BME280;24936;46.328;11.026;2023-07-13T20:47:50;94634.53;;;13.94;100.00
39223;BME280;24936;46.328;11.026;2023-07-13T20:50:21;94634.47;;;13.85;100.00
39223;BME280;24936;46.328;11.026;2023-07-13T20:52:49;94642.25;;;13.87;100.00
39223;BME280;24936;46.328;11.026;2023-07-13T20:55:18;94649.19;;;13.88;100.00
39223;BME280;24936;46.328;11.026;2023-07-13T20:57:46;94653.84;;;13.86;100.00
39223;BME280;24936;46.328;11.026;2023-07-13T21:00:20;94652.50;;;13.82;100.00
39223;BME280;24936;46.328;11.026;2023-07-13T21:02:47;94661.72;;;13.77;100.00
39223;BME280;24936;46.328;11.026;2023-07-13T21:05:19;94666.63;;;13.72;100.00
39223;BME280;24936;46.328;11.026;2023-07-13T21:07:45;94669.44;;;13.71;100.00
39223;BME280;24936;46.328;11.026;2023-07-13T21:10:13;94662.56;;;13.60;100.00
39223;BME280;24936;46.328;11.026;2023-07-13T21:12:39;94672.25;;;13.51;100.00
39223;BME280;24936;46.328;11.026;2023-07-13T21:15:05;94670.88;;;13.65;100.00
39223;BME280;24936;46.328;11.026;2023-07-13T21:17:32;94678.88;;;13.73;100.00
39223;BME280;24936;46.328;11.026;2023-07-13T21:19:59;94671.13;;;13.80;100.00
39223;BME280;24936;46.328;11.026;2023-07-13T21:22:24;94679.66;;;13.92;100.00
39223;BME280;24936;46.328;11.026;2023-07-13T21:24:51;94685.22;;;13.81;100.00
39223;BME280;24936;46.328;11.026;2023-07-13T21:27:16;94683.94;;;13.67;100.00
39223;BME280;24936;46.328;11.026;2023-07-13T21:29:42;94689.00;;;13.60;100.00
39223;BME280;24936;46.328;11.026;2023-07-13T21:32:14;94679.50;;;13.67;100.00
39223;BME280;24936;46.328;11.026;2023-07-13T21:34:45;94674.44;;;13.56;100.00
39223;BME280;24936;46.328;11.026;2023-07-13T21:37:17;94684.41;;;13.62;100.00
39223;BME280;24936;46.328;11.026;2023-07-13T21:39:47;94682.69;;;13.53;100.00
39223;BME280;24936;46.328;11.026;2023-07-13T21:42:14;94682.97;;;13.50;100.00
39223;BME280;24936;46.328;11.026;2023-07-13T21:44:39;94676.03;;;13.49;100.00
39223;BME280;24936;46.328;11.026;2023-07-13T21:47:05;94683.34;;;13.37;100.00
39223;BME280;24936;46.328;11.026;2023-07-13T21:49:31;94680.72;;;13.37;100.00
39223;BME280;24936;46.328;11.026;2023-07-13T21:51:57;94686.66;;;13.39;100.00
39223;BME280;24936;46.328;11.026;2023-07-13T21:54:22;94686.66;;;13.39;100.00
39223;BME280;24936;46.328;11.026;2023-07-13T21:56:49;94688.91;;;13.43;100.00
39223;BME280;24936;46.328;11.026;2023-07-13T22:01:47;94688.22;;;13.41;100.00
39223;BME280;24936;46.328;11.026;2023-07-13T22:04:15;94684.59;;;13.42;100.00
39223;BME280;24936;46.328;11.026;2023-07-13T22:06:42;94690.53;;;13.44;100.00
39223;BME280;24936;46.328;11.026;2023-07-13T22:09:18;94688.72;;;13.45;100.00
39223;BME280;24936;46.328;11.026;2023-07-13T22:11:45;94690.69;;;13.43;100.00
39223;BME280;24936;46.328;11.026;2023-07-13T22:14:10;94693.16;;;13.44;100.00
39223;BME280;24936;46.328;11.026;2023-07-13T22:16:36;94699.13;;;13.46;100.00
39223;BME280;24936;46.328;11.026;2023-07-13T22:19:15;94706.38;;;13.44;100.00
39223;BME280;24936;46.328;11.026;2023-07-13T22:21:41;94698.66;;;13.33;100.00
39223;BME280;24936;46.328;11.026;2023-07-13T22:24:18;94705.09;;;13.30;100.00
39223;BME280;24936;46.328;11.026;2023-07-13T22:26:46;94707.13;;;13.19;100.00
39223;BME280;24936;46.328;11.026;2023-07-13T22:29:14;94702.50;;;13.03;100.00
39223;BME280;24936;46.328;11.026;2023-07-13T22:31:41;94705.25;;;12.83;100.00
39223;BME280;24936;46.328;11.026;2023-07-13T22:34:15;94707.34;;;12.79;100.00
39223;BME280;24936;46.328;11.026;2023-07-13T22:36:41;94702.56;;;12.93;100.00
39223;BME280;24936;46.328;11.026;2023-07-13T22:39:14;94707.94;;;13.01;100.00
39223;BME280;24936;46.328;11.026;2023-07-13T22:41:40;94713.41;;;12.90;100.00
39223;BME280;24936;46.328;11.026;2023-07-13T22:44:17;94705.69;;;12.78;100.00
39223;BME280;24936;46.328;11.026;2023-07-13T22:46:42;94705.44;;;12.72;100.00
39223;BME280;24936;46.328;11.026;2023-07-13T22:49:18;94704.22;;;12.66;100.00
39223;BME280;24936;46.328;11.026;2023-07-13T22:51:44;94705.97;;;12.75;100.00
39223;BME280;24936;46.328;11.026;2023-07-13T22:54:09;94709.91;;;12.71;100.00
39223;BME280;24936;46.328;11.026;2023-07-13T22:56:35;94710.25;;;12.58;100.00
39223;BME280;24936;46.328;11.026;2023-07-13T22:59:00;94702.97;;;12.70;100.00
39223;BME280;24936;46.328;11.026;2023-07-13T23:01:27;94704.97;;;12.58;100.00
39223;BME280;24936;46.328;11.026;2023-07-13T23:03:54;94705.00;;;12.48;100.00
39223;BME280;24936;46.328;11.026;2023-07-13T23:06:26;94698.66;;;12.41;100.00
39223;BME280;24936;46.328;11.026;2023-07-13T23:08:53;94695.59;;;12.36;100.00
39223;BME280;24936;46.328;11.026;2023-07-13T23:11:21;94695.56;;;12.46;100.00
39223;BME280;24936;46.328;11.026;2023-07-13T23:13:48;94694.06;;;12.43;100.00
39223;BME280;24936;46.328;11.026;2023-07-13T23:16:16;94691.69;;;12.50;100.00
39223;BME280;24936;46.328;11.026;2023-07-13T23:18:42;94693.94;;;12.35;100.00
39223;BME280;24936;46.328;11.026;2023-07-13T23:21:17;94697.88;;;12.31;100.00
39223;BME280;24936;46.328;11.026;2023-07-13T23:23:44;94698.53;;;12.33;100.00
39223;BME280;24936;46.328;11.026;2023-07-13T23:26:16;94699.22;;;12.35;100.00
39223;BME280;24936;46.328;11.026;2023-07-13T23:28:42;94696.75;;;12.33;100.00
39223;BME280;24936;46.328;11.026;2023-07-13T23:31:24;94701.47;;;12.30;100.00
39223;BME280;24936;46.328;11.026;2023-07-13T23:33:51;94697.28;;;12.37;100.00
39223;BME280;24936;46.328;11.026;2023-07-13T23:36:18;94700.06;;;12.35;100.00
39223;BME280;24936;46.328;11.026;2023-07-13T23:38:45;94690.28;;;12.46;100.00
39223;BME280;24936;46.328;11.026;2023-07-13T23:41:10;94700.66;;;12.57;100.00
39223;BME280;24936;46.328;11.026;2023-07-13T23:43:36;94693.16;;;12.62;100.00
39223;BME280;24936;46.328;11.026;2023-07-13T23:46:22;94695.25;;;12.59;100.00
39223;BME280;24936;46.328;11.026;2023-07-13T23:48:49;94695.00;;;12.52;100.00
39223;BME280;24936;46.328;11.026;2023-07-13T23:51:15;94694.34;;;12.40;100.00
39223;BME280;24936;46.328;11.026;2023-07-13T23:53:42;94691.44;;;12.43;100.00
39223;BME280;24936;46.328;11.026;2023-07-13T23:56:18;94693.91;;;12.45;100.00
39223;BME280;24936;46.328;11.026;2023-07-13T23:58:44;94692.00;;;12.37;100.00
